Time;durP1;ratioP1;P1;durP2;ratioP2;P2;SDS_P1;SDS_P2;PMS_P1;PMS_P2;Temp;Humidity;BMP_temperature;BMP_pressure;BME280_temperature;BME280_humidity;BME280_pressure;Samples;Min_cycle;Max_cycle;Signal;HPM_P1;HPM_P2
2021/12/23 00:02:12;;;;;;;13.23;8.20;;;4.50;67.00;;;;;;4900609;29;20063;-68
2021/12/23 00:04:38;;;;;;;13.93;8.77;;;4.50;67.10;;;;;;4900456;29;20021;-68
2021/12/23 00:07:04;;;;;;;13.83;8.90;;;4.50;68.40;;;;;;4900228;29;20103;-68
2021/12/23 00:10:00;;;;;;;13.03;8.17;;;4.40;67.90;;;;;;4900426;29;20025;-67
2021/12/23 00:12:18;;;;;;;13.13;8.37;;;4.40;68.20;;;;;;4900136;29;20123;-68
2021/12/23 00:14:46;;;;;;;15.33;8.73;;;4.40;68.90;;;;;;4900374;29;20023;-68
2021/12/23 00:25:19;;;;;;;15.27;9.87;;;4.70;67.80;;;;;;4900130;29;20092;-68
2021/12/23 00:27:45;;;;;;;12.63;8.00;;;4.60;68.50;;;;;;4899956;29;20033;-68
2021/12/23 00:30:11;;;;;;;17.70;9.37;;;4.60;69.20;;;;;;4900158;29;20034;-68
2021/12/23 00:32:37;;;;;;;16.13;9.17;;;4.50;69.70;;;;;;4899954;29;20480;-68
2021/12/23 00:35:06;;;;;;;15.77;9.43;;;4.40;69.90;;;;;;4900106;29;20032;-67
2021/12/23 00:37:38;;;;;;;16.70;10.00;;;4.40;70.40;;;;;;4898864;29;20033;-69
2021/12/23 00:40:05;;;;;;;18.63;10.98;;;4.60;68.90;;;;;;4899829;29;20096;-68
2021/12/23 00:42:33;;;;;;;19.23;10.70;;;4.60;68.60;;;;;;4899640;29;20025;-68
2021/12/23 00:44:58;;;;;;;15.50;10.37;;;4.60;69.10;;;;;;4899463;29;20025;-67
2021/12/23 00:47:24;;;;;;;16.37;11.27;;;4.60;70.10;;;;;;4899842;29;20500;-68
2021/12/23 00:49:50;;;;;;;19.83;11.43;;;4.60;70.10;;;;;;4899921;29;20021;-67
2021/12/23 00:52:26;;;;;;;19.17;13.10;;;4.60;70.40;;;;;;4898180;29;20028;-69
2021/12/23 00:54:51;;;;;;;19.90;13.27;;;4.50;70.90;;;;;;4899034;29;20048;-68
2021/12/23 00:57:21;;;;;;;23.43;14.60;;;4.50;70.70;;;;;;4898045;29;20041;-68
2021/12/23 00:59:47;;;;;;;22.53;14.03;;;4.50;70.90;;;;;;4899611;29;20036;-69
2021/12/23 01:02:13;;;;;;;24.30;14.60;;;4.40;70.50;;;;;;4899482;29;20036;-68
2021/12/23 01:04:39;;;;;;;21.80;15.50;;;4.30;71.70;;;;;;4899542;29;20056;-68
2021/12/23 01:07:05;;;;;;;23.03;15.27;;;4.30;72.20;;;;;;4899028;29;20115;-68
2021/12/23 01:09:30;;;;;;;25.43;16.37;;;4.30;71.70;;;;;;4898980;29;20393;-68
2021/12/23 01:11:57;;;;;;;25.50;15.20;;;4.30;71.70;;;;;;4898967;29;20458;-68
2021/12/23 01:19:27;;;;;;;23.87;15.37;;;4.20;72.40;;;;;;4899012;29;20043;-68
2021/12/23 01:21:53;;;;;;;24.97;16.53;;;4.30;71.70;;;;;;4898399;29;20029;-68
2021/12/23 01:24:20;;;;;;;26.67;17.40;;;4.50;71.30;;;;;;4898792;29;20044;-69
2021/12/23 01:26:45;;;;;;;25.63;17.17;;;4.40;72.00;;;;;;4899053;29;20037;-68
2021/12/23 01:29:11;;;;;;;24.40;16.60;;;4.40;72.00;;;;;;4899116;29;20033;-68
2021/12/23 01:31:38;;;;;;;25.13;16.83;;;4.30;73.20;;;;;;4899056;29;20029;-69
2021/12/23 01:34:05;;;;;;;25.27;17.70;;;4.20;73.50;;;;;;4898532;29;20036;-68
2021/12/23 01:36:31;;;;;;;25.50;16.33;;;4.20;73.80;;;;;;4898315;29;20500;-69
2021/12/23 01:38:57;;;;;;;26.47;17.87;;;4.20;74.20;;;;;;4898513;29;20068;-68
2021/12/23 01:41:25;;;;;;;26.97;16.70;;;4.10;74.50;;;;;;4898493;29;20462;-67
2021/12/23 01:43:52;;;;;;;27.50;17.40;;;4.10;75.40;;;;;;4898372;29;20128;-68
2021/12/23 01:46:19;;;;;;;24.60;17.03;;;4.10;74.90;;;;;;4897250;29;20028;-69
2021/12/23 01:48:44;;;;;;;25.90;16.70;;;4.20;74.50;;;;;;4898275;29;20473;-68
2021/12/23 01:51:10;;;;;;;26.93;17.37;;;4.10;74.70;;;;;;4898591;29;20033;-68
2021/12/23 01:53:36;;;;;;;25.13;16.00;;;4.10;75.20;;;;;;4898349;29;20035;-68
2021/12/23 01:56:03;;;;;;;23.27;14.77;;;4.10;75.60;;;;;;4898307;29;20029;-68
2021/12/23 01:58:29;;;;;;;18.30;12.13;;;4.10;74.80;;;;;;4896273;29;20105;-67
2021/12/23 02:00:55;;;;;;;17.00;11.30;;;4.10;74.50;;;;;;4895730;29;20528;-68
2021/12/23 02:03:21;;;;;;;18.97;12.50;;;4.10;74.80;;;;;;4895762;29;20033;-68
2021/12/23 02:05:47;;;;;;;25.90;17.27;;;4.10;74.20;;;;;;4897551;29;20024;-68
2021/12/23 02:08:13;;;;;;;26.60;16.37;;;4.10;75.00;;;;;;4897839;29;20029;-68
2021/12/23 02:10:40;;;;;;;26.43;17.00;;;4.10;75.20;;;;;;4897910;29;20035;-68
2021/12/23 02:13:06;;;;;;;22.80;15.60;;;4.10;75.40;;;;;;4897786;29;20076;-68
2021/12/23 02:15:31;;;;;;;27.23;16.50;;;4.10;75.50;;;;;;4898000;29;20028;-68
2021/12/23 02:17:58;;;;;;;25.90;15.70;;;4.10;75.70;;;;;;4897710;29;20035;-68
2021/12/23 02:20:32;;;;;;;28.03;16.83;;;4.10;75.50;;;;;;4897652;29;20099;-69
2021/12/23 02:22:58;;;;;;;26.33;16.63;;;4.10;76.40;;;;;;4897894;29;20024;-68
2021/12/23 02:25:24;;;;;;;27.77;16.53;;;4.00;75.90;;;;;;4897975;29;20080;-68
2021/12/23 02:27:51;;;;;;;28.73;17.20;;;4.00;77.60;;;;;;4897350;29;20270;-68
2021/12/23 02:30:22;;;;;;;27.53;17.07;;;4.00;77.70;;;;;;4897817;29;20025;-68
2021/12/23 02:32:49;;;;;;;29.20;16.80;;;4.00;77.50;;;;;;4897623;29;20032;-67
2021/12/23 02:35:17;;;;;;;25.33;15.93;;;4.00;76.90;;;;;;4897349;29;20024;-67
2021/12/23 02:37:44;;;;;;;22.23;14.03;;;4.00;78.10;;;;;;4897657;29;20068;-68
2021/12/23 02:40:11;;;;;;;25.07;12.80;;;4.00;77.70;;;;;;4897983;29;20020;-68
2021/12/23 02:42:38;;;;;;;19.93;12.70;;;4.10;76.30;;;;;;4897595;29;20043;-68
2021/12/23 02:45:09;;;;;;;20.27;11.33;;;4.10;76.50;;;;;;4897521;29;20029;-68
2021/12/23 02:47:36;;;;;;;18.10;11.00;;;4.10;75.40;;;;;;4897725;29;20103;-68
2021/12/23 02:50:02;;;;;;;20.47;10.90;;;4.10;75.50;;;;;;4897423;29;20466;-68
2021/12/23 02:52:28;;;;;;;12.90;8.67;;;4.10;75.10;;;;;;4896689;29;20067;-68
2021/12/23 02:54:58;;;;;;;16.57;8.63;;;4.20;74.30;;;;;;4897548;29;20060;-68
2021/12/23 02:57:24;;;;;;;12.33;8.10;;;4.30;73.10;;;;;;4897420;29;20043;-69
2021/12/23 02:59:50;;;;;;;13.90;9.07;;;4.40;71.50;;;;;;4897346;29;20043;-68
2021/12/23 03:02:17;;;;;;;13.50;9.27;;;4.40;71.50;;;;;;4901227;29;20403;-68
2021/12/23 03:04:43;;;;;;;15.57;9.07;;;4.30;72.40;;;;;;4901506;29;20123;-68
2021/12/23 03:07:08;;;;;;;14.07;8.30;;;4.40;73.10;;;;;;4901553;29;20481;-68
2021/12/23 03:09:34;;;;;;;20.80;13.33;;;4.30;73.00;;;;;;4900250;29;20036;-69
2021/12/23 03:12:00;;;;;;;20.00;12.90;;;4.40;73.00;;;;;;4901432;29;20028;-68
2021/12/23 03:14:25;;;;;;;27.40;13.03;;;4.40;74.50;;;;;;4901349;29;20032;-68
2021/12/23 03:16:51;;;;;;;19.20;12.60;;;4.40;74.10;;;;;;4901315;29;20434;-69
2021/12/23 03:19:17;;;;;;;16.00;10.30;;;4.50;74.00;;;;;;4901387;29;20033;-68
2021/12/23 03:21:45;;;;;;;16.20;10.87;;;4.50;72.80;;;;;;4901098;29;20044;-68
2021/12/23 03:24:15;;;;;;;16.87;10.27;;;4.50;73.70;;;;;;4901078;29;20028;-68
2021/12/23 03:26:41;;;;;;;13.97;9.00;;;4.40;73.50;;;;;;4900947;29;20040;-69
2021/12/23 03:29:08;;;;;;;16.10;9.40;;;4.40;72.40;;;;;;4901082;29;20430;-69
2021/12/23 03:31:35;;;;;;;13.53;8.93;;;4.40;72.50;;;;;;4901221;29;20028;-69
2021/12/23 03:34:01;;;;;;;17.27;9.90;;;4.30;72.50;;;;;;4901066;29;20040;-67
2021/12/23 03:36:26;;;;;;;17.67;13.17;;;4.30;73.00;;;;;;4900898;29;20533;-68
2021/12/23 03:38:52;;;;;;;23.63;15.33;;;4.40;73.00;;;;;;4900790;29;20121;-68
2021/12/23 03:41:18;;;;;;;23.87;16.23;;;4.50;73.80;;;;;;4900949;29;20035;-68
2021/12/23 03:43:44;;;;;;;24.13;16.07;;;4.50;74.80;;;;;;4900897;29;20040;-68
2021/12/23 03:46:09;;;;;;;26.23;17.03;;;4.50;76.00;;;;;;4900925;29;20025;-68
2021/12/23 03:48:35;;;;;;;26.17;16.60;;;4.50;75.60;;;;;;4900719;29;20041;-68
2021/12/23 03:51:01;;;;;;;26.23;17.70;;;4.40;77.50;;;;;;4901032;29;20033;-69
2021/12/23 03:53:26;;;;;;;26.37;16.30;;;4.30;78.10;;;;;;4900421;29;20036;-67
2021/12/23 03:55:52;;;;;;;27.13;16.80;;;4.40;76.90;;;;;;4900598;29;20071;-68
2021/12/23 03:58:18;;;;;;;24.53;16.30;;;4.40;75.90;;;;;;4900540;29;20040;-69
2021/12/23 04:00:44;;;;;;;22.67;15.67;;;4.40;76.00;;;;;;4900678;29;20097;-69
2021/12/23 04:03:10;;;;;;;23.60;16.27;;;4.40;75.80;;;;;;4914829;29;20028;-68
2021/12/23 04:05:36;;;;;;;26.13;17.10;;;4.40;76.00;;;;;;4900513;29;20028;-68
2021/12/23 04:08:02;;;;;;;27.27;17.50;;;4.40;76.70;;;;;;4900384;29;20028;-69
2021/12/23 04:10:28;;;;;;;27.43;17.63;;;4.30;77.60;;;;;;4900084;29;20107;-68
2021/12/23 04:12:54;;;;;;;24.17;16.13;;;4.30;78.50;;;;;;4899440;29;20116;-68
2021/12/23 04:15:20;;;;;;;23.23;16.57;;;4.20;78.50;;;;;;4899436;29;20013;-68
2021/12/23 04:17:46;;;;;;;25.53;16.77;;;4.10;79.20;;;;;;4900052;29;20111;-69
2021/12/23 04:20:21;;;;;;;24.10;16.20;;;4.10;79.50;;;;;;4900153;29;20112;-68
2021/12/23 04:22:49;;;;;;;23.77;15.47;;;4.00;79.30;;;;;;4900119;29;20095;-68
2021/12/23 04:25:16;;;;;;;25.53;16.33;;;4.10;78.80;;;;;;4900068;29;20397;-68
2021/12/23 04:27:44;;;;;;;27.20;16.73;;;4.10;79.60;;;;;;4900256;29;20067;-69
2021/12/23 04:30:11;;;;;;;26.40;16.97;;;4.00;78.90;;;;;;4900165;29;20454;-69
2021/12/23 04:32:38;;;;;;;24.40;15.93;;;4.10;79.30;;;;;;4899959;29;20075;-68
2021/12/23 04:35:04;;;;;;;24.53;16.47;;;4.10;79.00;;;;;;4899978;29;20114;-68
2021/12/23 04:37:30;;;;;;;24.77;16.03;;;4.10;79.40;;;;;;4899766;29;20048;-69
2021/12/23 04:39:55;;;;;;;27.33;16.20;;;4.00;79.30;;;;;;4899778;29;20032;-68
2021/12/23 04:42:21;;;;;;;25.13;15.00;;;4.00;79.40;;;;;;4899819;29;20021;-69
2021/12/23 04:44:48;;;;;;;24.07;15.60;;;4.00;80.00;;;;;;4899644;29;20032;-69
2021/12/23 04:47:13;;;;;;;25.47;16.10;;;4.10;79.20;;;;;;4899913;29;20033;-68
2021/12/23 04:49:39;;;;;;;23.67;15.27;;;4.10;79.70;;;;;;4899681;29;20466;-69
2021/12/23 04:52:05;;;;;;;22.53;14.77;;;4.00;80.50;;;;;;4899330;29;20465;-69
2021/12/23 04:54:31;;;;;;;23.40;10.93;;;4.00;80.40;;;;;;4899135;29;20056;-68
2021/12/23 04:56:56;;;;;;;17.50;9.93;;;4.10;78.50;;;;;;4899532;29;20374;-68
2021/12/23 04:59:22;;;;;;;16.77;10.17;;;4.10;76.30;;;;;;4899603;29;20048;-69
2021/12/23 05:01:49;;;;;;;15.23;8.97;;;4.00;76.10;;;;;;4899514;29;20468;-69
2021/12/23 05:04:15;;;;;;;20.13;10.30;;;4.00;76.00;;;;;;4899368;29;20025;-69
2021/12/23 05:06:41;;;;;;;16.97;9.07;;;4.00;76.00;;;;;;4899695;29;20496;-68
2021/12/23 05:09:07;;;;;;;12.73;7.83;;;4.00;76.40;;;;;;4899623;29;20028;-69
2021/12/23 05:11:33;;;;;;;12.30;7.60;;;4.00;75.60;;;;;;4899389;29;20037;-68
2021/12/23 05:13:58;;;;;;;16.97;8.30;;;4.10;74.50;;;;;;4899252;29;20025;-68
2021/12/23 05:16:24;;;;;;;15.57;8.30;;;4.00;73.40;;;;;;4899255;29;20501;-68
2021/12/23 05:18:50;;;;;;;14.97;8.10;;;4.10;73.50;;;;;;4899099;29;20062;-69
2021/12/23 05:21:15;;;;;;;17.77;8.50;;;4.10;73.50;;;;;;4899167;29;20025;-69
2021/12/23 05:23:41;;;;;;;15.67;8.23;;;4.00;73.40;;;;;;4898460;29;20088;-69
2021/12/23 05:26:08;;;;;;;16.67;9.17;;;4.00;74.20;;;;;;4898964;29;20024;-69
2021/12/23 05:28:34;;;;;;;15.67;8.90;;;4.00;73.30;;;;;;4899098;29;20084;-68
2021/12/23 05:31:00;;;;;;;17.17;9.10;;;4.00;73.10;;;;;;4898953;29;20031;-69
2021/12/23 05:33:26;;;;;;;14.20;8.33;;;4.10;72.90;;;;;;4899005;29;20035;-69
2021/12/23 05:35:52;;;;;;;19.13;8.50;;;4.10;72.70;;;;;;4899020;29;20412;-68
2021/12/23 05:38:17;;;;;;;14.80;8.20;;;4.10;72.50;;;;;;4898833;29;20036;-68
2021/12/23 05:40:43;;;;;;;12.63;8.00;;;4.10;72.10;;;;;;4898938;29;20025;-68
2021/12/23 05:43:10;;;;;;;15.03;8.27;;;4.20;71.90;;;;;;4898743;29;20048;-69
2021/12/23 05:45:36;;;;;;;18.70;8.43;;;4.20;71.50;;;;;;4898783;29;20458;-68
2021/12/23 05:48:02;;;;;;;15.83;8.67;;;4.20;71.90;;;;;;4897129;29;20397;-68
2021/12/23 05:50:28;;;;;;;13.17;8.17;;;4.20;72.20;;;;;;4898805;29;20431;-72
2021/12/23 05:52:53;;;;;;;15.17;8.90;;;4.20;71.80;;;;;;4898573;29;20067;-73
2021/12/23 05:55:20;;;;;;;16.07;8.30;;;4.20;72.30;;;;;;4898537;29;20069;-72
2021/12/23 05:57:46;;;;;;;14.97;8.33;;;4.20;73.30;;;;;;4898424;29;20136;-73
2021/12/23 06:00:18;;;;;;;16.97;8.37;;;4.10;73.50;;;;;;4898658;29;20533;-73
2021/12/23 06:02:44;;;;;;;14.40;9.23;;;4.10;73.00;;;;;;4898464;29;20036;-72
2021/12/23 06:05:11;;;;;;;15.60;8.23;;;4.00;73.30;;;;;;4898285;29;20025;-73
2021/12/23 06:07:36;;;;;;;17.20;8.63;;;4.00;74.40;;;;;;4898314;29;20065;-73
2021/12/23 06:10:04;;;;;;;14.27;8.70;;;3.90;74.50;;;;;;4898316;29;20478;-73
2021/12/23 06:12:29;;;;;;;15.27;9.07;;;3.90;75.00;;;;;;4898223;29;20482;-72
2021/12/23 06:14:55;;;;;;;14.23;9.23;;;3.90;75.60;;;;;;4898494;29;20032;-73
2021/12/23 06:17:21;;;;;;;15.10;9.33;;;3.90;74.40;;;;;;4898248;29;20470;-73
2021/12/23 06:19:46;;;;;;;17.27;8.97;;;3.80;75.30;;;;;;4898454;29;20119;-71
2021/12/23 06:22:17;;;;;;;15.70;8.73;;;3.90;75.40;;;;;;4898254;29;20397;-72
2021/12/23 06:24:45;;;;;;;21.37;9.80;;;3.90;74.90;;;;;;4898159;29;20020;-73
2021/12/23 06:27:11;;;;;;;15.37;9.53;;;3.90;73.70;;;;;;4897840;29;20484;-73
2021/12/23 06:29:37;;;;;;;19.87;10.03;;;4.00;73.10;;;;;;4897840;29;20334;-72
2021/12/23 06:32:04;;;;;;;15.53;9.43;;;4.10;72.50;;;;;;4897720;29;20045;-72
2021/12/23 06:34:29;;;;;;;19.10;9.63;;;4.00;72.40;;;;;;4897179;29;20040;-71
2021/12/23 06:36:55;;;;;;;15.37;9.43;;;4.00;73.10;;;;;;4897715;29;20028;-72
2021/12/23 06:39:21;;;;;;;19.60;10.03;;;4.00;73.20;;;;;;4897792;29;20032;-72
2021/12/23 06:41:46;;;;;;;17.67;10.07;;;4.10;72.70;;;;;;4897800;29;20025;-72
2021/12/23 06:44:12;;;;;;;17.30;9.90;;;4.00;72.90;;;;;;4897937;29;20036;-72
2021/12/23 06:46:38;;;;;;;16.60;9.10;;;4.00;73.60;;;;;;4897920;29;20029;-71
2021/12/23 06:49:04;;;;;;;14.47;9.40;;;4.00;73.50;;;;;;4897220;29;20024;-72
2021/12/23 06:51:30;;;;;;;20.43;9.03;;;4.00;74.00;;;;;;4895767;29;20032;-73
2021/12/23 06:53:58;;;;;;;20.20;10.40;;;3.90;74.30;;;;;;4893946;29;20100;-72
2021/12/23 06:56:25;;;;;;;19.70;10.00;;;3.80;75.70;;;;;;4894780;29;20081;-82
2021/12/23 06:58:51;;;;;;;20.37;11.30;;;3.90;75.30;;;;;;4896732;29;20040;-67
2021/12/23 07:01:20;;;;;;;20.90;10.37;;;3.90;75.50;;;;;;4897953;29;20025;-85
2021/12/23 07:04:33;;;;;;;22.20;12.53;;;3.90;76.60;;;;;;4897805;29;20061;-79
2021/12/23 07:06:46;;;;;;;26.27;14.03;;;3.80;77.70;;;;;;4897277;29;20389;-79
2021/12/23 07:09:11;;;;;;;30.37;14.13;;;3.70;80.00;;;;;;4897843;29;20032;-78
2021/12/23 07:11:37;;;;;;;23.10;13.57;;;3.70;79.60;;;;;;4898003;29;20025;-74
2021/12/23 07:14:03;;;;;;;25.53;15.20;;;3.70;80.40;;;;;;4897343;29;20029;-76
2021/12/23 07:16:28;;;;;;;20.17;14.07;;;3.60;79.90;;;;;;4898048;29;20046;-77
2021/12/23 07:18:54;;;;;;;23.03;14.30;;;3.60;80.50;;;;;;4897499;29;20037;-76
2021/12/23 07:21:21;;;;;;;22.00;12.70;;;3.70;80.70;;;;;;4897412;29;20029;-79
2021/12/23 07:23:46;;;;;;;22.97;11.30;;;3.70;80.00;;;;;;4897626;29;20043;-84
2021/12/23 07:26:12;;;;;;;23.43;13.23;;;3.70;79.30;;;;;;4898386;29;20029;-86
2021/12/23 07:28:38;;;;;;;33.33;17.37;;;3.70;78.80;;;;;;4897718;29;20492;-81
2021/12/23 07:31:04;;;;;;;35.80;19.27;;;3.70;77.90;;;;;;4897840;29;20033;-84
2021/12/23 07:33:29;;;;;;;28.53;16.23;;;3.70;78.30;;;;;;4897633;29;20029;-85
2021/12/23 07:35:55;;;;;;;30.70;17.20;;;3.70;78.30;;;;;;4897400;29;20036;-80
2021/12/23 07:38:21;;;;;;;24.83;14.87;;;3.70;80.00;;;;;;4897557;29;20115;-75
2021/12/23 07:40:47;;;;;;;27.73;15.13;;;3.80;79.60;;;;;;4894763;29;20862;-74
2021/12/23 07:43:42;;;;;;;24.03;14.17;;;3.80;79.50;;;;;;4893938;29;20119;-78
2021/12/23 07:46:07;;;;;;;32.77;14.40;;;3.90;78.50;;;;;;4898230;29;20040;-78
2021/12/23 07:48:34;;;;;;;25.80;13.83;;;3.90;77.50;;;;;;4916925;29;20028;-75
2021/12/23 07:51:01;;;;;;;23.97;13.17;;;4.10;76.30;;;;;;4919314;29;20472;-76
2021/12/23 07:53:27;;;;;;;25.80;12.60;;;4.10;75.80;;;;;;4913904;29;20036;-79
2021/12/23 07:55:53;;;;;;;21.70;12.80;;;4.10;75.80;;;;;;4903577;29;20034;-79
2021/12/23 07:58:19;;;;;;;32.27;13.47;;;4.20;77.00;;;;;;4918229;29;20047;-75
2021/12/23 08:00:45;;;;;;;36.43;12.93;;;4.20;77.40;;;;;;4912103;29;20032;-76
2021/12/23 08:03:10;;;;;;;27.00;12.40;;;4.20;77.30;;;;;;4900436;29;20108;-75
2021/12/23 08:05:36;;;;;;;19.37;11.43;;;4.20;77.70;;;;;;4895534;29;20083;-78
2021/12/23 08:08:03;;;;;;;23.63;11.30;;;4.30;77.10;;;;;;4867431;29;20133;-78
2021/12/23 08:10:29;;;;;;;18.40;11.20;;;4.30;76.20;;;;;;4900474;29;20036;-78
2021/12/23 08:12:54;;;;;;;22.07;11.73;;;4.40;75.60;;;;;;4900665;29;20035;-79
2021/12/23 08:15:20;;;;;;;24.77;12.23;;;4.40;75.30;;;;;;4900298;29;20478;-75
2021/12/23 08:17:46;;;;;;;24.37;11.93;;;4.40;75.80;;;;;;4900346;29;20037;-77
2021/12/23 08:20:14;;;;;;;21.57;11.53;;;4.40;76.10;;;;;;4900324;29;20061;-78
2021/12/23 08:22:40;;;;;;;20.33;11.27;;;4.40;76.40;;;;;;4900123;29;20045;-76
2021/12/23 08:25:07;;;;;;;23.07;12.07;;;4.50;75.40;;;;;;4900235;29;20517;-79
2021/12/23 08:27:34;;;;;;;28.63;15.67;;;4.60;75.30;;;;;;4898836;29;20509;-78
2021/12/23 08:30:01;;;;;;;33.97;16.40;;;4.50;76.00;;;;;;4881466;29;20037;-78
2021/12/23 08:32:27;;;;;;;31.17;17.23;;;4.60;76.40;;;;;;4880480;29;20040;-74
2021/12/23 08:34:52;;;;;;;38.63;17.10;;;4.60;76.50;;;;;;4880952;29;20107;-78
2021/12/23 08:37:18;;;;;;;31.63;16.27;;;4.70;77.00;;;;;;4880504;29;20033;-81
2021/12/23 08:39:47;;;;;;;36.13;15.97;;;4.70;77.10;;;;;;4880789;29;20558;-75
2021/12/23 08:42:12;;;;;;;23.93;13.60;;;4.70;76.80;;;;;;4881129;29;20093;-73
2021/12/23 08:44:40;;;;;;;21.93;13.27;;;4.80;76.10;;;;;;4880676;29;20482;-73
2021/12/23 08:47:06;;;;;;;23.60;12.67;;;4.70;76.70;;;;;;4881139;29;20094;-75
2021/12/23 08:49:33;;;;;;;29.10;14.37;;;4.80;76.20;;;;;;4881044;29;20336;-73
2021/12/23 08:51:59;;;;;;;27.07;14.93;;;4.90;75.90;;;;;;4879425;29;20045;-75
2021/12/23 08:54:25;;;;;;;35.27;18.20;;;4.90;75.60;;;;;;4880689;29;20111;-70
2021/12/23 08:56:51;;;;;;;27.47;16.60;;;4.80;77.40;;;;;;4878095;29;20025;-79
2021/12/23 08:59:18;;;;;;;27.87;17.30;;;4.70;77.60;;;;;;4879838;29;20054;-77
2021/12/23 09:01:45;;;;;;;23.63;16.23;;;4.70;77.70;;;;;;4880220;29;20060;-76
2021/12/23 09:04:11;;;;;;;26.20;16.03;;;4.60;77.80;;;;;;4881415;29;20029;-73
2021/12/23 09:06:36;;;;;;;30.80;16.43;;;4.60;78.10;;;;;;4880266;29;20028;-77
2021/12/23 09:09:03;;;;;;;29.43;17.57;;;4.70;77.90;;;;;;4880228;29;20028;-75
2021/12/23 09:11:29;;;;;;;27.97;16.90;;;4.80;77.70;;;;;;4880252;29;20107;-73
2021/12/23 09:13:55;;;;;;;31.27;14.57;;;4.80;78.20;;;;;;4880313;29;20096;-73
2021/12/23 09:16:21;;;;;;;24.47;14.20;;;4.90;78.40;;;;;;4880553;29;20041;-76
2021/12/23 09:18:47;;;;;;;25.57;14.43;;;4.90;77.40;;;;;;4880357;29;20417;-74
2021/12/23 09:21:12;;;;;;;25.63;14.53;;;5.00;76.30;;;;;;4880464;29;20021;-67
2021/12/23 09:23:42;;;;;;;26.47;12.17;;;5.10;76.40;;;;;;4880047;29;20067;-70
2021/12/23 09:26:10;;;;;;;24.27;13.07;;;5.20;75.90;;;;;;4880189;29;20044;-72
2021/12/23 09:34:25;;;;;;;27.20;15.00;;;5.30;74.30;;;;;;4880280;29;20060;-79
2021/12/23 09:36:51;;;;;;;25.00;13.27;;;5.30;75.00;;;;;;4878693;29;20029;-78
2021/12/23 09:39:16;;;;;;;21.83;12.43;;;5.40;74.50;;;;;;4878884;29;20442;-78
2021/12/23 09:41:44;;;;;;;20.20;12.30;;;5.40;73.40;;;;;;4879738;29;20032;-74
2021/12/23 09:44:11;;;;;;;22.93;12.43;;;5.50;74.00;;;;;;4879789;29;20032;-79
2021/12/23 09:46:38;;;;;;;22.43;12.10;;;5.50;73.80;;;;;;4879897;29;20041;-79
2021/12/23 09:49:05;;;;;;;22.53;12.00;;;5.50;72.80;;;;;;4880104;29;20029;-74
2021/12/23 09:51:33;;;;;;;20.30;11.50;;;5.70;72.50;;;;;;4880160;29;20463;-85
2021/12/23 09:54:03;;;;;;;18.37;11.43;;;5.80;71.80;;;;;;4879818;29;20048;-71
2021/12/23 09:56:31;;;;;;;19.63;12.57;;;5.80;71.80;;;;;;4879448;29;20033;-74
2021/12/23 09:58:58;;;;;;;26.20;13.47;;;5.90;71.60;;;;;;4879904;29;20066;-76
2021/12/23 10:01:25;;;;;;;24.03;13.37;;;6.00;71.80;;;;;;4879909;29;20160;-76
2021/12/23 10:03:51;;;;;;;20.47;12.67;;;6.00;71.50;;;;;;4879789;29;20033;-80
2021/12/23 10:06:17;;;;;;;19.77;11.93;;;6.10;71.50;;;;;;4879758;29;20021;-78
2021/12/23 10:08:44;;;;;;;17.50;12.43;;;6.20;69.70;;;;;;4879757;29;20035;-70
2021/12/23 10:11:43;;;;;;;25.30;13.80;;;6.20;69.40;;;;;;4879677;29;20029;-79
2021/12/23 10:30:44;;;;;;;16.07;10.33;;;6.70;66.90;;;;;;4879941;29;20041;-78
2021/12/23 10:38:48;;;;;;;12.93;8.67;;;6.70;65.70;;;;;;4879580;29;20045;-82
2021/12/23 10:41:18;;;;;;;21.50;12.80;;;6.70;65.50;;;;;;4879245;29;20025;-75
2021/12/23 10:44:04;;;;;;;34.00;23.33;;;6.70;65.60;;;;;;4879643;29;20432;-79
2021/12/23 10:46:37;;;;;;;15.73;10.83;;;6.70;65.40;;;;;;4879366;29;20025;-78
2021/12/23 10:49:33;;;;;;;16.27;9.65;;;6.70;65.20;;;;;;4879782;29;20071;-73
2021/12/23 10:52:14;;;;;;;26.33;13.80;;;6.70;64.10;;;;;;4879295;29;20104;-80
2021/12/23 11:00:20;;;;;;;18.73;10.20;;;6.70;66.20;;;;;;4879744;29;20401;-78
2021/12/23 11:03:51;;;;;;;17.20;10.40;;;6.70;66.60;;;;;;4879374;29;20110;-81
2021/12/23 11:06:17;;;;;;;18.30;10.43;;;6.80;66.20;;;;;;4880891;29;20379;-78
2021/12/23 11:08:55;;;;;;;17.03;10.70;;;6.70;65.60;;;;;;4878835;29;20116;-71
2021/12/23 11:11:59;;;;;;;17.40;10.70;;;6.70;66.40;;;;;;4877733;29;20128;-80
2021/12/23 11:41:31;;;;;;;18.23;12.00;;;6.60;65.70;;;;;;4883100;29;20032;-81
2021/12/23 11:44:01;;;;;;;22.07;13.13;;;6.60;66.20;;;;;;4887358;29;20048;-85
2021/12/23 11:46:46;;;;;;;18.50;12.00;;;6.70;66.50;;;;;;4882491;29;20029;-82
2021/12/23 11:49:13;;;;;;;17.17;12.20;;;6.70;65.90;;;;;;4882152;29;20467;-81
2021/12/23 11:54:11;;;;;;;19.37;11.27;;;6.80;66.30;;;;;;4882221;29;20057;-81
2021/12/23 11:56:40;;;;;;;16.77;11.73;;;6.80;66.10;;;;;;4881762;29;20067;-82
2021/12/23 11:59:09;;;;;;;19.00;12.57;;;6.80;66.70;;;;;;4883702;29;20454;-81
2021/12/23 12:01:53;;;;;;;17.30;11.40;;;6.80;65.60;;;;;;4882051;29;20487;-80
2021/12/23 12:04:27;;;;;;;17.57;11.23;;;6.80;65.20;;;;;;4881875;29;20367;-81
2021/12/23 12:06:55;;;;;;;16.87;11.50;;;6.90;65.60;;;;;;4881448;29;20379;-81
2021/12/23 12:09:24;;;;;;;21.67;11.50;;;6.90;65.50;;;;;;4882104;29;20061;-81
2021/12/23 12:11:58;;;;;;;18.13;12.20;;;6.90;65.10;;;;;;4890284;29;20037;-81
2021/12/23 12:14:36;;;;;;;20.17;12.70;;;7.00;66.80;;;;;;4884052;29;20051;-81
2021/12/23 12:17:20;;;;;;;20.90;11.60;;;7.00;65.70;;;;;;4881917;29;20033;-81
2021/12/23 12:20:35;;;;;;;18.63;12.70;;;7.00;64.80;;;;;;4881760;29;20100;-78
2021/12/23 12:23:13;;;;;;;19.40;12.40;;;7.00;65.50;;;;;;4878404;29;20047;-80
2021/12/23 12:25:40;;;;;;;18.37;12.07;;;7.00;64.60;;;;;;4881582;29;20044;-78
2021/12/23 12:28:06;;;;;;;21.83;12.93;;;7.00;65.10;;;;;;4882108;29;20021;-85
2021/12/23 12:30:37;;;;;;;21.00;13.00;;;7.00;65.10;;;;;;4881823;29;20036;-78
2021/12/23 12:33:35;;;;;;;21.23;14.90;;;7.00;64.40;;;;;;4880649;29;20021;-85
2021/12/23 12:36:01;;;;;;;22.73;14.33;;;7.00;64.90;;;;;;4882195;29;20025;-81
2021/12/23 12:38:34;;;;;;;22.20;14.20;;;7.00;65.80;;;;;;4881682;29;20100;-80
2021/12/23 12:41:04;;;;;;;18.03;13.87;;;7.00;64.80;;;;;;4881812;29;20033;-67
2021/12/23 12:43:42;;;;;;;21.83;14.47;;;7.00;66.40;;;;;;4881744;29;20037;-80
2021/12/23 12:46:09;;;;;;;18.67;14.37;;;7.00;65.10;;;;;;4881553;29;20111;-85
2021/12/23 12:48:57;;;;;;;20.03;14.30;;;7.00;66.40;;;;;;4881437;29;20066;-83
2021/12/23 12:51:34;;;;;;;20.97;13.50;;;7.00;66.00;;;;;;4881275;29;20036;-74
2021/12/23 12:54:06;;;;;;;21.70;14.63;;;7.00;65.90;;;;;;4878064;29;20090;-77
2021/12/23 12:56:43;;;;;;;23.55;15.35;;;7.10;65.60;;;;;;4878357;29;20040;-77
2021/12/23 12:59:09;;;;;;;72.53;20.80;;;7.00;65.90;;;;;;4879387;29;20037;-74
2021/12/23 13:01:42;;;;;;;28.87;15.87;;;7.10;68.40;;;;;;4880612;29;20030;-72
2021/12/23 13:04:42;;;;;;;54.42;19.50;;;7.00;66.40;;;;;;4880585;29;20033;-74
2021/12/23 13:07:25;;;;;;;28.40;16.00;;;7.00;68.40;;;;;;4880239;29;20497;-83
2021/12/23 13:10:00;;;;;;;28.05;15.85;;;7.00;68.90;;;;;;4880703;29;20041;-79
2021/12/23 13:12:48;;;;;;;36.80;15.00;;;7.00;68.50;;;;;;4880653;29;20041;-85
2021/12/23 13:15:16;;;;;;;166.33;32.23;;;7.10;69.60;;;;;;4880165;29;20033;-69
2021/12/23 13:17:55;;;;;;;86.83;17.03;;;7.10;70.70;;;;;;4880648;29;20405;-71
2021/12/23 13:20:35;;;;;;;90.70;24.60;;;7.10;69.40;;;;;;4878886;29;20098;-70
2021/12/23 13:23:06;;;;;;;30.13;18.33;;;7.10;68.00;;;;;;4879857;29;20149;-75
2021/12/23 13:25:33;;;;;;;21.10;15.23;;;7.10;67.50;;;;;;4887799;29;20029;-70
2021/12/23 13:28:00;;;;;;;38.30;19.33;;;7.20;67.00;;;;;;4898507;29;20033;-69
2021/12/23 13:30:27;;;;;;;33.30;18.40;;;7.10;67.90;;;;;;4898578;29;20024;-68
2021/12/23 13:33:15;;;;;;;84.67;21.27;;;7.10;67.90;;;;;;4898323;29;20130;-83
2021/12/23 13:35:41;;;;;;;26.30;16.50;;;7.10;68.70;;;;;;4898651;29;20385;-71
2021/12/23 13:38:06;;;;;;;41.43;19.47;;;7.10;66.80;;;;;;4898149;29;20107;-78
2021/12/23 13:40:36;;;;;;;149.13;33.33;;;7.10;66.80;;;;;;4898473;29;20029;-69
2021/12/23 13:43:01;;;;;;;23.03;15.43;;;7.00;69.20;;;;;;4898406;29;20036;-77
2021/12/23 13:45:28;;;;;;;37.27;17.10;;;7.00;69.30;;;;;;4898487;29;20036;-69
2021/12/23 13:47:56;;;;;;;25.50;16.27;;;7.10;68.40;;;;;;4898563;29;20165;-70
2021/12/23 13:50:24;;;;;;;24.00;16.43;;;7.10;67.20;;;;;;4898682;29;20039;-71
2021/12/23 13:52:51;;;;;;;225.00;33.03;;;7.10;68.60;;;;;;4898343;29;20088;-70
2021/12/23 13:55:26;;;;;;;89.87;36.30;;;7.10;70.00;;;;;;4898331;29;20052;-71
2021/12/23 13:57:57;;;;;;;26.27;17.07;;;7.10;71.20;;;;;;4898361;29;20474;-71
2021/12/23 14:00:25;;;;;;;30.07;19.90;;;7.10;70.70;;;;;;4898060;29;20032;-72
2021/12/23 14:02:54;;;;;;;43.27;22.27;;;7.10;67.90;;;;;;4898305;29;20035;-83